createdAt,value
2019-05-02T00:01:54.555Z,99881.39
2019-05-02T00:04:24.468Z,99880.09
2019-05-02T00:07:08.302Z,99879.02
2019-05-02T00:09:47.350Z,99878.43
2019-05-02T00:12:11.816Z,99875.03
2019-05-02T00:14:42.089Z,99875.20
2019-05-02T00:17:11.681Z,99868.31
2019-05-02T00:19:45.163Z,99869.98
2019-05-02T00:22:17.114Z,99862.80
2019-05-02T00:24:44.233Z,99861.95
2019-05-02T00:27:14.188Z,99864.87
2019-05-02T00:29:43.823Z,99868.82
2019-05-02T00:32:13.537Z,99866.17
2019-05-02T00:34:43.145Z,99858.91
2019-05-02T00:37:12.808Z,99856.41
2019-05-02T00:39:45.219Z,99851.22
2019-05-02T00:42:17.569Z,99854.31
2019-05-02T00:44:46.909Z,99849.61
2019-05-02T00:47:30.453Z,99858.11
2019-05-02T00:50:00.299Z,99843.78
2019-05-02T00:52:32.898Z,99855.60
2019-05-02T00:55:01.419Z,99847.48
2019-05-02T00:57:30.929Z,99846.88
2019-05-02T01:00:00.557Z,99847.40
2019-05-02T01:02:40.668Z,99845.43
2019-05-02T01:05:11.450Z,99838.45
2019-05-02T01:07:40.999Z,99844.13
2019-05-02T01:10:10.801Z,99843.23
2019-05-02T01:12:44.499Z,99840.75
2019-05-02T01:15:12.597Z,99841.20
2019-05-02T01:17:42.329Z,99839.55
2019-05-02T01:20:12.264Z,99838.84
2019-05-02T01:22:41.996Z,99833.70
2019-05-02T01:25:15.955Z,99836.91
2019-05-02T01:27:48.686Z,99835.26
2019-05-02T01:30:37.180Z,99838.42
2019-05-02T01:33:23.497Z,99841.63
2019-05-02T01:36:08.192Z,99840.59
2019-05-02T01:38:41.679Z,99835.80
2019-05-02T01:41:11.578Z,99833.43
2019-05-02T01:43:41.322Z,99831.05
2019-05-02T01:46:11.060Z,99838.61
2019-05-02T01:48:45.629Z,99838.11
2019-05-02T01:51:12.216Z,99824.23
2019-05-02T01:53:41.701Z,99835.60
2019-05-02T01:56:11.761Z,99831.72
2019-05-02T01:58:41.359Z,99829.76
2019-05-02T02:01:10.957Z,99832.27
2019-05-02T02:03:45.570Z,99836.95
2019-05-02T02:06:11.919Z,99836.11
2019-05-02T02:08:41.566Z,99840.92
2019-05-02T02:11:11.334Z,99838.39
2019-05-02T02:13:41.100Z,99843.94
2019-05-02T02:16:10.755Z,99841.02
2019-05-02T02:18:46.065Z,99842.45
2019-05-02T02:21:32.594Z,99843.80
2019-05-02T02:24:12.273Z,99843.14
2019-05-02T02:26:43.550Z,99845.62
2019-05-02T02:29:13.305Z,99843.74
2019-05-02T02:31:46.381Z,99843.75
2019-05-02T02:34:14.310Z,99833.21
2019-05-02T02:36:43.947Z,99842.27
2019-05-02T02:39:16.793Z,99839.59
2019-05-02T02:41:51.240Z,99836.75
2019-05-02T02:44:39.929Z,99836.06
2019-05-02T02:47:12.089Z,99837.95
2019-05-02T02:49:37.928Z,99831.81
2019-05-02T02:52:07.549Z,99834.30
2019-05-02T02:54:43.545Z,99831.14
2019-05-02T02:57:20.543Z,99831.12
2019-05-02T02:59:39.911Z,99836.64
2019-05-02T03:02:11.861Z,99829.46
2019-05-02T03:04:43.936Z,99829.45
2019-05-02T03:07:24.054Z,99831.81
2019-05-02T03:09:43.634Z,99827.97
2019-05-02T03:12:36.168Z,99828.44
2019-05-02T03:15:03.491Z,99825.77
2019-05-02T03:17:33.169Z,99828.45
2019-05-02T03:20:03.835Z,99829.95
2019-05-02T03:22:35.081Z,99822.09
2019-05-02T03:25:05.254Z,99821.40
2019-05-02T03:27:37.506Z,99823.06
2019-05-02T03:30:06.639Z,99827.58
2019-05-02T03:32:36.677Z,99826.41
2019-05-02T03:35:06.351Z,99831.09
2019-05-02T03:37:36.187Z,99829.09
2019-05-02T03:40:06.167Z,99824.61
2019-05-02T03:42:43.660Z,99832.81
2019-05-02T03:45:07.354Z,99833.66
2019-05-02T03:47:43.671Z,99837.65
2019-05-02T03:50:09.517Z,99835.48
2019-05-02T03:52:43.965Z,99833.30
2019-05-02T03:55:10.885Z,99839.81
2019-05-02T03:57:42.122Z,99840.31
2019-05-02T04:00:21.348Z,99844.36
2019-05-02T04:02:43.653Z,99835.47
2019-05-02T04:05:13.322Z,99837.67
2019-05-02T04:07:42.992Z,99838.16
2019-05-02T04:10:19.641Z,99836.82
2019-05-02T04:12:45.892Z,99840.69
2019-05-02T04:15:15.610Z,99842.19
2019-05-02T04:17:45.187Z,99839.84
2019-05-02T04:20:14.753Z,99838.17
2019-05-02T04:22:48.948Z,99833.45
2019-05-02T04:25:15.637Z,99841.01
2019-05-02T04:27:45.163Z,99841.84
2019-05-02T04:30:14.687Z,99841.19
2019-05-02T04:32:49.913Z,99845.85
2019-05-02T04:35:15.571Z,99842.08
2019-05-02T04:37:45.237Z,99843.00
2019-05-02T04:40:14.712Z,99845.16
2019-05-02T04:42:44.288Z,99844.17
2019-05-02T04:45:26.327Z,99844.48
2019-05-02T04:47:54.899Z,99849.02
2019-05-02T04:50:18.475Z,99842.48
2019-05-02T04:52:53.630Z,99841.83
2019-05-02T04:55:25.955Z,99840.50
2019-05-02T04:57:51.132Z,99844.17
2019-05-02T05:00:28.592Z,99839.13
2019-05-02T05:02:58.119Z,99853.72
2019-05-02T05:05:31.101Z,99850.17
2019-05-02T05:07:59.077Z,99847.42
2019-05-02T05:10:40.374Z,99841.64
2019-05-02T05:13:00.341Z,99851.91
2019-05-02T05:15:38.311Z,99853.15
2019-05-02T05:18:04.517Z,99844.91
2019-05-02T05:20:32.833Z,99850.96
2019-05-02T05:23:02.383Z,99853.80
2019-05-02T05:25:37.869Z,99860.00
2019-05-02T05:28:09.082Z,99857.70
2019-05-02T05:30:45.198Z,99854.88
2019-05-02T05:33:10.445Z,99857.98
2019-05-02T05:35:43.332Z,99864.83
2019-05-02T05:38:11.467Z,99863.72
2019-05-02T05:40:41.070Z,99861.06
2019-05-02T05:43:14.400Z,99862.31
2019-05-02T05:45:53.560Z,99872.27
2019-05-02T05:48:13.866Z,99866.92
2019-05-02T05:50:43.579Z,99869.80
2019-05-02T05:53:17.057Z,99870.83
2019-05-02T05:55:44.392Z,99875.84
2019-05-02T05:58:15.749Z,99878.67
2019-05-02T06:00:45.828Z,99885.34
2019-05-02T06:03:17.952Z,99882.13
2019-05-02T06:05:47.779Z,99889.05
2019-05-02T06:08:18.477Z,99890.66
2019-05-02T06:10:48.589Z,99885.50
2019-05-02T06:13:18.142Z,99886.59
2019-05-02T06:15:47.653Z,99889.59
2019-05-02T06:18:17.166Z,99887.88
2019-05-02T06:20:46.799Z,99890.58
2019-05-02T06:23:16.353Z,99895.02
2019-05-02T06:25:45.873Z,99896.13
2019-05-02T06:28:15.415Z,99890.05
2019-05-02T06:30:44.883Z,99889.95
2019-05-02T06:33:14.465Z,99893.58
2019-05-02T06:35:43.979Z,99893.66
2019-05-02T06:38:13.507Z,99897.19
2019-05-02T06:40:44.648Z,99895.13
2019-05-02T06:43:14.355Z,99889.72
2019-05-02T06:45:43.934Z,99891.02
2019-05-02T06:48:17.504Z,99898.44
2019-05-02T06:50:44.770Z,99891.84
2019-05-02T06:53:14.322Z,99901.31
2019-05-02T06:55:43.829Z,99895.54
2019-05-02T06:58:13.295Z,99894.53
2019-05-02T07:00:56.485Z,99895.09
2019-05-02T07:03:14.181Z,99892.66
2019-05-02T07:05:43.680Z,99896.77
2019-05-02T07:08:14.031Z,99897.58
2019-05-02T07:10:45.024Z,99899.91
2019-05-02T07:13:15.416Z,99901.45
2019-05-02T07:16:10.409Z,99898.08
2019-05-02T07:18:47.629Z,99897.38
2019-05-02T07:21:17.417Z,99906.48
2019-05-02T07:23:48.730Z,99910.56
2019-05-02T07:26:21.004Z,99903.57
2019-05-02T07:28:49.177Z,99902.66
2019-05-02T07:31:18.754Z,99900.05
2019-05-02T07:33:48.243Z,99901.06
2019-05-02T07:36:17.834Z,99901.69
2019-05-02T07:38:47.402Z,99894.23
2019-05-02T07:41:16.909Z,99894.94
2019-05-02T07:43:46.413Z,99895.19
2019-05-02T07:46:16.222Z,99887.33
2019-05-02T07:48:48.976Z,99890.88
2019-05-02T07:51:21.312Z,99894.06
2019-05-02T07:53:49.808Z,99892.12
2019-05-02T07:56:19.343Z,99894.11
2019-05-02T07:58:48.818Z,99887.64
2019-05-02T08:01:18.332Z,99889.11
2019-05-02T08:03:47.790Z,99888.29
2019-05-02T08:06:17.588Z,99887.75
2019-05-02T08:08:47.488Z,99895.70
2019-05-02T08:11:17.378Z,99889.98
2019-05-02T08:13:49.569Z,99895.86
2019-05-02T08:16:22.382Z,99889.17
2019-05-02T08:18:49.917Z,99901.45
2019-05-02T08:21:19.701Z,99888.49
2019-05-02T08:23:49.204Z,99885.91
2019-05-02T08:26:21.793Z,99877.61
2019-05-02T08:28:55.290Z,99873.77
2019-05-02T08:31:24.993Z,99881.63
2019-05-02T08:33:54.846Z,99878.20
2019-05-02T08:36:24.308Z,99876.48
2019-05-02T08:38:55.389Z,99875.98
2019-05-02T08:41:25.002Z,99877.05
2019-05-02T08:43:54.504Z,99876.82
2019-05-02T08:46:24.004Z,99871.05
2019-05-02T08:48:53.830Z,99860.84
2019-05-02T08:51:23.594Z,99863.89
2019-05-02T08:53:56.854Z,99857.98
2019-05-02T08:56:24.500Z,99849.70
2019-05-02T08:58:54.000Z,99847.89
2019-05-02T09:01:34.619Z,99855.96
2019-05-02T09:03:56.924Z,99842.07
2019-05-02T09:06:26.761Z,99849.41
2019-05-02T09:08:56.277Z,99838.95
2019-05-02T09:11:25.731Z,99840.63
2019-05-02T09:13:55.295Z,99830.81
2019-05-02T09:16:28.635Z,99831.55
2019-05-02T09:18:56.142Z,99830.18
2019-05-02T09:21:29.799Z,99831.09
2019-05-02T09:23:56.798Z,99828.31
2019-05-02T09:26:35.202Z,99822.36
2019-05-02T09:29:01.696Z,99823.32
2019-05-02T09:31:28.838Z,99811.95
2019-05-02T09:33:58.348Z,99809.73
2019-05-02T09:36:27.841Z,99806.23
2019-05-02T09:38:57.779Z,99804.01
2019-05-02T09:41:34.474Z,99795.67
2019-05-02T09:43:58.465Z,99795.50
2019-05-02T09:46:28.019Z,99789.39
2019-05-02T09:49:04.279Z,99783.90
2019-05-02T09:51:28.769Z,99785.34
2019-05-02T09:54:02.717Z,99777.70
2019-05-02T09:56:29.423Z,99776.70
2019-05-02T09:59:04.814Z,99773.47
2019-05-02T10:01:36.361Z,99780.59
2019-05-02T10:04:06.128Z,99775.41
2019-05-02T10:06:35.631Z,99775.03
2019-05-02T10:09:06.516Z,99768.28
2019-05-02T10:11:36.068Z,99758.22
2019-05-02T10:14:05.973Z,99760.39
2019-05-02T10:16:35.464Z,99759.59
2019-05-02T10:19:09.406Z,99759.09
2019-05-02T10:21:36.105Z,99751.50
2019-05-02T10:24:05.553Z,99755.67
2019-05-02T10:26:35.115Z,99750.00
2019-05-02T10:29:04.623Z,99740.16
2019-05-02T10:31:37.692Z,99732.22
2019-05-02T10:34:08.506Z,99735.42
2019-05-02T10:36:37.030Z,99737.89
2019-05-02T10:39:07.907Z,99729.11
2019-05-02T10:41:39.310Z,99727.81
2019-05-02T10:44:09.017Z,99723.43
2019-05-02T10:46:57.374Z,99722.16
2019-05-02T10:49:52.711Z,99714.39
2019-05-02T10:52:29.432Z,99703.36
2019-05-02T10:54:53.611Z,99705.63
2019-05-02T10:57:23.562Z,99702.42
2019-05-02T10:59:56.049Z,99700.50
2019-05-02T11:02:56.910Z,99689.64
2019-05-02T11:05:26.828Z,99689.31
2019-05-02T11:07:56.971Z,99690.31
2019-05-02T11:10:27.434Z,99685.69
2019-05-02T11:13:15.773Z,99681.52
2019-05-02T11:16:12.441Z,99682.39
2019-05-02T11:18:53.277Z,99671.54
2019-05-02T11:21:23.012Z,99675.13
2019-05-02T11:23:52.800Z,99670.43
2019-05-02T11:26:25.150Z,99677.98
2019-05-02T11:28:53.623Z,99669.03
2019-05-02T11:31:23.195Z,99667.33
2019-05-02T11:33:53.007Z,99666.77
2019-05-02T11:36:22.569Z,99662.59
2019-05-02T11:39:00.051Z,99661.58
2019-05-02T11:41:23.229Z,99653.55
2019-05-02T11:43:55.739Z,99648.11
2019-05-02T11:46:23.929Z,99652.73
2019-05-02T11:48:58.093Z,99646.56
2019-05-02T11:51:24.690Z,99650.72
2019-05-02T11:53:54.279Z,99649.16
2019-05-02T11:56:23.985Z,99653.86
2019-05-02T11:58:53.714Z,99653.20
2019-05-02T12:01:35.504Z,99648.27
2019-05-02T12:03:54.504Z,99653.09
2019-05-02T12:06:23.966Z,99650.39
2019-05-02T12:08:53.514Z,99650.86
2019-05-02T12:11:23.171Z,99646.81
2019-05-02T12:13:56.774Z,99638.94
2019-05-02T12:16:24.289Z,99640.58
2019-05-02T12:19:07.761Z,99637.64
2019-05-02T12:21:24.968Z,99628.91
2019-05-02T12:23:54.465Z,99626.45
2019-05-02T12:26:23.995Z,99625.76
2019-05-02T12:28:53.580Z,99631.72
2019-05-02T12:31:32.156Z,99630.73
2019-05-02T12:34:03.652Z,99624.47
2019-05-02T12:36:33.534Z,99623.31
2019-05-02T12:39:03.310Z,99626.69
2019-05-02T12:41:33.238Z,99617.80
2019-05-02T12:44:02.790Z,99618.11
2019-05-02T12:46:32.343Z,99618.78
2019-05-02T12:49:02.856Z,99623.80
2019-05-02T12:51:32.573Z,99617.50
2019-05-02T12:54:02.485Z,99610.09
2019-05-02T12:56:32.513Z,99611.45
2019-05-02T12:59:02.525Z,99600.69
2019-05-02T13:01:33.058Z,99612.27
2019-05-02T13:04:07.955Z,99599.93
2019-05-02T13:06:37.497Z,99594.71
2019-05-02T13:09:09.943Z,99595.81
2019-05-02T13:11:52.306Z,99585.69
2019-05-02T13:14:25.330Z,99594.12
2019-05-02T13:17:01.200Z,99594.77
2019-05-02T13:19:37.078Z,99586.91
2019-05-02T13:22:07.676Z,99582.37
2019-05-02T13:24:46.886Z,99582.09
2019-05-02T13:27:16.060Z,99576.88
2019-05-02T13:29:46.088Z,99576.53
2019-05-02T13:32:24.632Z,99566.05
2019-05-02T13:35:12.887Z,99566.45
2019-05-02T13:37:43.188Z,99559.47
2019-05-02T13:40:17.785Z,99555.09
2019-05-02T13:42:47.247Z,99565.64
2019-05-02T13:45:27.899Z,99556.84
2019-05-02T13:47:57.498Z,99552.19
2019-05-02T13:50:27.090Z,99548.30
2019-05-02T13:52:57.994Z,99540.25
2019-05-02T13:55:32.065Z,99549.19
2019-05-02T13:58:02.331Z,99533.02
2019-05-02T14:00:46.676Z,99532.34
2019-05-02T14:03:16.276Z,99535.20
2019-05-02T14:05:51.134Z,99529.56
2019-05-02T14:08:37.275Z,99526.32
2019-05-02T14:11:24.599Z,99520.14
2019-05-02T14:13:54.145Z,99525.02
2019-05-02T14:16:23.534Z,99508.03
2019-05-02T14:18:53.108Z,99506.09
2019-05-02T14:21:23.067Z,99508.08
2019-05-02T14:23:52.417Z,99503.44
2019-05-02T14:26:30.286Z,99504.26
2019-05-02T14:28:53.302Z,99498.05
2019-05-02T14:31:23.364Z,99491.80
2019-05-02T14:34:12.123Z,99486.16
2019-05-02T14:36:42.357Z,99483.45
2019-05-02T14:39:12.090Z,99476.98
2019-05-02T14:41:44.497Z,99472.17
2019-05-02T14:44:12.658Z,99475.66
2019-05-02T14:46:42.570Z,99465.80
2019-05-02T14:49:12.145Z,99470.19
2019-05-02T14:51:41.914Z,99466.30
2019-05-02T14:54:12.078Z,99460.51
2019-05-02T14:56:52.396Z,99458.30
2019-05-02T14:59:22.815Z,99454.09
2019-05-02T15:01:57.876Z,99460.45
2019-05-02T15:04:26.745Z,99457.55
2019-05-02T15:06:56.331Z,99453.19
2019-05-02T15:09:27.027Z,99452.63
2019-05-02T15:12:02.302Z,99444.50
2019-05-02T15:14:32.962Z,99447.55
2019-05-02T15:17:02.931Z,99439.73
2019-05-02T15:19:33.135Z,99444.22
2019-05-02T15:22:02.908Z,99450.42
2019-05-02T15:24:36.156Z,99440.28
2019-05-02T15:27:11.782Z,99443.36
2019-05-02T15:29:35.055Z,99446.05
2019-05-02T15:32:37.259Z,99444.52
2019-05-02T15:35:26.914Z,99444.60
2019-05-02T15:38:01.790Z,99437.36
2019-05-02T15:43:04.487Z,99438.07
2019-05-02T15:45:32.070Z,99431.42
2019-05-02T15:48:02.624Z,99438.27
2019-05-02T15:50:32.643Z,99434.43
2019-05-02T15:53:12.534Z,99441.17
2019-05-02T15:55:43.859Z,99440.41
2019-05-02T15:58:22.943Z,99435.98
2019-05-02T16:00:56.502Z,99433.66
2019-05-02T16:03:45.754Z,99430.08
2019-05-02T16:06:16.460Z,99428.87
2019-05-02T16:08:47.458Z,99426.24
2019-05-02T16:11:19.556Z,99422.95
2019-05-02T16:13:52.794Z,99416.05
2019-05-02T16:16:22.434Z,99423.72
2019-05-02T16:18:52.600Z,99421.23
2019-05-02T16:21:32.604Z,99423.27
2019-05-02T16:24:22.974Z,99423.42
2019-05-02T16:26:54.123Z,99424.18
2019-05-02T16:29:28.434Z,99429.92
2019-05-02T16:32:05.558Z,99426.12
2019-05-02T16:34:52.073Z,99424.76
2019-05-02T16:37:22.546Z,99425.38
2019-05-02T16:39:52.210Z,99426.62
2019-05-02T16:42:22.755Z,99431.27
2019-05-02T16:44:54.702Z,99424.45
2019-05-02T16:47:24.073Z,99431.07
2019-05-02T16:49:56.386Z,99419.52
2019-05-02T16:52:25.006Z,99419.03
2019-05-02T16:54:54.659Z,99424.70
2019-05-02T16:57:24.240Z,99417.67
2019-05-02T17:00:01.128Z,99421.07
2019-05-02T17:02:25.221Z,99425.34
2019-05-02T17:04:54.897Z,99420.52
2019-05-02T17:07:43.535Z,99425.23
2019-05-02T17:10:34.825Z,99426.59
2019-05-02T17:13:03.375Z,99421.22
2019-05-02T17:15:35.346Z,99421.11
2019-05-02T17:18:12.880Z,99420.39
2019-05-02T17:20:37.145Z,99416.85
2019-05-02T17:23:07.710Z,99413.55
2019-05-02T17:25:37.492Z,99426.55
2019-05-02T17:28:10.502Z,99427.58
2019-05-02T17:30:40.407Z,99422.57
2019-05-02T17:33:12.775Z,99427.41
2019-05-02T17:35:41.639Z,99422.80
2019-05-02T17:38:12.186Z,99425.53
2019-05-02T17:40:42.318Z,99424.26
2019-05-02T17:43:11.917Z,99429.55
2019-05-02T17:45:41.560Z,99424.89
2019-05-02T17:48:16.191Z,99429.06
2019-05-02T17:51:17.082Z,99427.73
2019-05-02T17:53:49.769Z,99432.95
2019-05-02T17:56:22.532Z,99434.98
2019-05-02T17:58:56.593Z,99427.45
2019-05-02T18:01:33.304Z,99431.39
2019-05-02T18:03:58.903Z,99437.43
2019-05-02T18:06:32.952Z,99432.02
2019-05-02T18:08:59.894Z,99432.58
2019-05-02T18:11:29.782Z,99438.23
2019-05-02T18:14:02.635Z,99442.86
2019-05-02T18:16:32.410Z,99450.22
2019-05-02T18:19:02.102Z,99447.81
2019-05-02T18:21:32.321Z,99457.57
2019-05-02T18:24:05.946Z,99458.09
2019-05-02T18:26:33.437Z,99463.49
2019-05-02T18:29:06.800Z,99472.82
2019-05-02T18:31:34.787Z,99490.45
2019-05-02T18:34:05.836Z,99491.53
2019-05-02T18:36:35.501Z,99492.19
2019-05-02T18:39:06.513Z,99493.45
2019-05-02T18:41:37.412Z,99496.20
2019-05-02T18:44:07.528Z,99497.78
2019-05-02T18:46:41.447Z,99509.52
2019-05-02T18:49:08.577Z,99503.63
2019-05-02T18:51:38.054Z,99508.65
2019-05-02T18:54:08.644Z,99514.98
2019-05-02T18:56:42.829Z,99518.02
2019-05-02T18:59:14.179Z,99520.97
2019-05-02T19:01:42.748Z,99524.75
2019-05-02T19:04:13.210Z,99520.40
2019-05-02T19:06:42.852Z,99524.73
2019-05-02T19:09:12.872Z,99520.97
2019-05-02T19:11:44.093Z,99532.94
2019-05-02T19:14:16.568Z,99532.94
2019-05-02T19:16:45.073Z,99532.55
2019-05-02T19:19:14.727Z,99538.51
2019-05-02T19:21:44.365Z,99542.08
2019-05-02T19:24:14.019Z,99548.85
2019-05-02T19:26:49.155Z,99547.70
2019-05-02T19:29:22.176Z,99547.70
2019-05-02T19:31:53.442Z,99537.38
2019-05-02T19:34:26.851Z,99540.70
2019-05-02T19:36:58.144Z,99545.84
2019-05-02T19:39:26.419Z,99538.57
2019-05-02T19:41:56.004Z,99543.74
2019-05-02T19:44:28.783Z,99544.34
2019-05-02T19:46:56.738Z,99542.20
2019-05-02T19:49:26.407Z,99546.44
2019-05-02T19:51:58.121Z,99547.13
2019-05-02T19:54:33.481Z,99546.66
2019-05-02T19:56:58.547Z,99533.30
2019-05-02T19:59:29.665Z,99537.77
2019-05-02T20:02:02.536Z,99539.75
2019-05-02T20:04:32.647Z,99545.80
2019-05-02T20:07:02.133Z,99532.41
2019-05-02T20:09:31.939Z,99538.10
2019-05-02T20:12:05.964Z,99534.56
2019-05-02T20:14:32.983Z,99540.91
2019-05-02T20:17:02.739Z,99528.36
2019-05-02T20:19:34.973Z,99541.25
2019-05-02T20:22:22.565Z,99540.81
2019-05-02T20:24:58.302Z,99547.59
2019-05-02T20:27:27.901Z,99546.47
2019-05-02T20:29:56.415Z,99554.57
2019-05-02T20:32:26.423Z,99545.28
2019-05-02T20:34:56.438Z,99546.81
2019-05-02T20:37:26.346Z,99549.18
2019-05-02T20:39:56.073Z,99552.55
2019-05-02T20:42:26.068Z,99547.42
2019-05-02T20:44:56.313Z,99547.50
2019-05-02T20:47:26.331Z,99542.90
2019-05-02T20:49:56.167Z,99553.66
2019-05-02T20:52:26.153Z,99558.33
2019-05-02T20:54:56.271Z,99567.58
2019-05-02T20:57:26.187Z,99562.39
2019-05-02T20:59:56.026Z,99566.69
2019-05-02T21:02:26.125Z,99564.56
2019-05-02T21:04:55.759Z,99573.71
2019-05-02T21:07:35.560Z,99575.75
2019-05-02T21:10:19.007Z,99582.92
2019-05-02T21:12:48.778Z,99578.76
2019-05-02T21:15:18.426Z,99577.16
2019-05-02T21:17:48.002Z,99564.45
2019-05-02T21:20:17.639Z,99574.92
2019-05-02T21:22:47.324Z,99581.58
2019-05-02T21:25:16.891Z,99581.66
2019-05-02T21:27:46.409Z,99569.73
2019-05-02T21:30:17.540Z,99584.95
2019-05-02T21:32:47.060Z,99589.15
2019-05-02T21:35:16.647Z,99585.15
2019-05-02T21:37:47.373Z,99581.39
2019-05-02T21:40:16.968Z,99585.70
2019-05-02T21:42:46.729Z,99592.16
2019-05-02T21:45:16.291Z,99596.15
2019-05-02T21:47:45.990Z,99595.50
2019-05-02T21:50:47.546Z,99595.83
2019-05-02T21:53:41.576Z,99600.32
2019-05-02T21:56:21.618Z,99606.00
2019-05-02T21:59:12.105Z,99608.13
2019-05-02T22:01:48.544Z,99621.91
2019-05-02T22:04:18.207Z,99629.49
2019-05-02T22:06:47.965Z,99635.00
2019-05-02T22:09:17.544Z,99628.42
2019-05-02T22:11:47.267Z,99638.89
2019-05-02T22:14:16.961Z,99644.28
2019-05-02T22:16:46.633Z,99645.38
2019-05-02T22:19:16.258Z,99649.15
2019-05-02T22:21:45.822Z,99654.55
2019-05-02T22:24:15.527Z,99650.82
2019-05-02T22:26:45.159Z,99658.55
2019-05-02T22:29:14.818Z,99657.36
2019-05-02T22:31:44.484Z,99656.97
2019-05-02T22:34:14.133Z,99663.95
2019-05-02T22:36:43.910Z,99668.02
2019-05-02T22:39:31.785Z,99669.03
2019-05-02T22:42:04.574Z,99660.39
2019-05-02T22:44:33.445Z,99668.98
2019-05-02T22:47:03.124Z,99662.27
2019-05-02T22:49:32.852Z,99660.72
2019-05-02T22:52:02.339Z,99669.73
2019-05-02T22:54:33.944Z,99667.63
2019-05-02T22:57:03.196Z,99670.89
2019-05-02T22:59:32.819Z,99673.91
2019-05-02T23:02:02.379Z,99671.70
2019-05-02T23:04:32.499Z,99673.88
2019-05-02T23:07:02.562Z,99671.66
2019-05-02T23:09:32.163Z,99676.34
2019-05-02T23:12:02.810Z,99677.42
2019-05-02T23:14:32.681Z,99673.95
2019-05-02T23:17:02.454Z,99669.66
2019-05-02T23:19:32.149Z,99675.48
2019-05-02T23:22:02.156Z,99675.57
2019-05-02T23:24:59.056Z,99679.45
2019-05-02T23:28:02.662Z,99678.52
2019-05-02T23:30:32.347Z,99674.09
2019-05-02T23:33:02.348Z,99680.02
2019-05-02T23:35:34.360Z,99675.62
2019-05-02T23:38:04.181Z,99673.61
2019-05-02T23:40:33.857Z,99673.83
2019-05-02T23:43:03.515Z,99669.62
2019-05-02T23:45:32.989Z,99677.41
2019-05-02T23:48:02.631Z,99671.08
2019-05-02T23:50:32.279Z,99669.34
2019-05-02T23:53:02.372Z,99673.27
2019-05-02T23:55:33.802Z,99665.14
2019-05-02T23:58:03.148Z,99666.67
